Grant, Minnesota
Current Conditions -  °F | °C
As of 10:11 AM on Friday 21 Nov 2014 (Local Time) from K21D Reporting Station
Overcast Overcast  
Wind Chill:   Ceiling: 12000
Heat Index: 18°   Visibility: 10mi
Dew Point: 10°   Wind: 15mph
Humidity: 73%   Direction: 180°S
Pressure: 30.19"   Gusts: NA
Location:  45.051°N, 92.9612°W
Report Text: K21D 211611Z AUTO 18013KT 10SM OVC120 M08/M12 A3019 RMK AO2
Loading
Personal Weather Stations






























Interactive Weather Map New forecast layout! Learn more

10-Day Weather Forecast

Advertisements
Track Severe Weather on mobile